AirNav   Everest Fuels
 
 866 users online  

SC35 Ehrhardt Airport
Ehrhardt, South Carolina, USA

GOING TO EHRHARDT?


FAA INFORMATION EFFECTIVE 21 MAY 2020

Location

FAA Identifier: SC35
Lat/Long: 33-05-22.5750N 081-00-29.3650W
33-05.376250N 081-00.489417W
33.0896042,-81.0081569
(estimated)
Elevation: 146 ft. / 45 m (estimated)
Variation: 04W (1985)
From city: 1 mile SE of EHRHARDT, SC
Time zone: UTC -4 (UTC -5 during Standard Time)
Zip code: 29081

Airport Operations

Airport use: Private use. Permission required prior to landing
Activation date: 09/1977
Control tower: no
ARTCC: JACKSONVILLE CENTER
FSS: ANDERSON FLIGHT SERVICE STATION
Attendance: UNATNDD
Wind indicator: yes
Segmented circle: no

Airport Communications

WX AWOS-3PT at AQX (14 nm SW): 118.950 (803-584-3696)

Nearby radio navigation aids

VOR radial/distance  VOR name  Freq  Var
ALDr073/(15.0)ALLENDALE VOR116.7001W
VANr237/36.4VANCE VORTAC110.4006W

 
NDB name  Hdg/Dist  Freq  Var  ID
DORCHESTER COUNTY280/36.836507WDYB -.. -.-- -...
SYLVANIA055/39.624507WJYL .--- -.-- .-..

Airport Services

Runway Information

Runway 11/29

Dimensions: 3400 x 80 ft. / 1036 x 24 m
Surface: turf
RUNWAY 11  RUNWAY 29
Traffic pattern: leftleft

Airport Ownership and Management from official FAA records

Ownership: Privately-owned
Owner: G. D. VARN
BOX 97
EHRHARDT, SC 29081
Phone 803-267-3882
Manager: G. D. VARN
BOX 97
EHRHARDT, SC 29081
Phone 803-267-3882

Airport Operational Statistics

Aircraft based on the field: 3
Single engine airplanes: 3
    

Additional Remarks

FOR CD CTC JACKSONVILLE ARTCC AT 904-845-1592.

Instrument Procedures

There are no published instrument procedures at SC35.

Some nearby airports with instrument procedures:

99N - Bamberg County Airport (14 nm N)
KAQX - Allendale County Airport (14 nm SW)
KRBW - Lowcountry Regional Airport (21 nm SE)
KBNL - Barnwell Regional Airport (22 nm NW)
KOGB - Orangeburg Municipal Airport (23 nm N)
 
Loc | Ops | Rwys | IFR | FBO | Links
Com | Nav | Svcs | Stats | Notes
Area around SC35 (Ehrhardt Airport)
 
Road maps at: MapQuest Bing Google
 
Aerial photo
No photo
 
Sectional chart

 
Airport distance calculator
Flying to Ehrhardt Airport? Find the distance to fly.

From to SC35

Sunrise and sunset
Times for 24-May-2020
 Local
(UTC-4)
 Zulu
(UTC)
Morning civil twilight05:5209:52
Sunrise06:2010:20
Sunset20:2200:22
Evening civil twilight20:5000:50

Current date and time
Zulu (UTC)  25-May-2020 02:14:51
Local (UTC-4)  24-May-2020 22:14:51
 
METAR
KAQX 
14nm SW 
250155Z AUTO 00000KT 9SM CLR 22/21 A3004 RMK AO2
KRBW 
21nm SE 
250155Z AUTO 05003KT 10SM CLR 23/21 A3006 RMK AO2 LTG DSNT N
KBNL 
22nm NW 
250155Z AUTO 00000KT 10SM -DZ BKN037 OVC044 23/22 A3005 RMK AO2 LTG DSNT E AND NW
KOGB 
24nm N 
250153Z AUTO 05008KT 10SM SCT060 BKN070 BKN090 25/19 A3008 RMK AO2 LTG DSNT N AND E SLP182 T02500189
TAF
KOGB 
24nm N 
242104Z 2421/2518 11005KT P6SM SCT040 FM242300 12006KT P6SM VCTS BKN045CB TEMPO 2423/2501 VRB10G25KT 2SM TSRA OVC020CB FM250300 VRB03KT P6SM SCT050 BKN200 FM251000 VRB02KT 3SM BR SCT008 BKN015 FM251500 09006KT P6SM SCT015 BKN035
NOTAMs
Click for the latest NOTAMs
NOTAMs are issued by the DoD/FAA and will open in a separate window not controlled by AirNav.

 

 
 

Would you like to see your business listed on this page?

 If your business provides an interesting product or service to pilots, flight crews, aircraft, or users of the Ehrhardt Airport, you should consider listing it here.  To start the listing process, click on the button below
 
Add a business
 

Other Pages about Ehrhardt Airport

Update a link
 
Copyright © AirNav, LLC. All rights reserved. Privacy Policy  Contact